Flight Track Log - Related Links

Times and Time Zones

All times are in EDT time to prevent confusion due to time zone crossing. See the SWA1668 flight status page for this flight to view local times or setup timezone preferences in your user account.

Time Position Orientation Groundspeed Altitude Reporting Facility
EDT Latitude Longitude Course Direction KTS MPH feet Rate Location/Type
Tue 07:06:17 PM 34.9881 -106.6767 228° Southwest 189 217 7,600  Level Albuquerque Center
Tue 07:07:10 PM 34.9983 -106.7403 281° West 254 292 8,400 2,579 Climbing Albuquerque Center
Tue 07:08:11 PM 35.0225 -106.8286 288° West 268 308 12,500 3,756 Climbing Albuquerque Center
Tue 07:09:13 PM 35.0467 -106.9303 286° West 287 330 16,100 3,339 Climbing Albuquerque Center
Tue 07:10:15 PM 35.0853 -107.0306 295° West 305 351 19,400 2,732 Climbing Albuquerque Center
Tue 07:11:16 PM 35.1003 -107.1339 280° West 325 374 21,700 1,805 Climbing Albuquerque Center
Tue 07:12:18 PM 35.1178 -107.2603 280° West 382 440 23,100 1,645 Climbing Albuquerque Center
Tue 07:13:20 PM 35.1367 -107.3939 280° West 395 455 25,100 2,049 Climbing Albuquerque Center
Tue 07:14:21 PM 35.1586 -107.5394 280° West 413 475 27,300 2,098 Climbing Albuquerque Center
Tue 07:15:23 PM 35.1808 -107.6986 280° West 422 486 29,400 1,854 Climbing Albuquerque Center
Tue 07:16:24 PM 35.2014 -107.8394 280° West 433 498 31,100 2,000 Climbing Albuquerque Center
Tue 07:17:26 PM 35.2256 -108.0050 280° West 440 506 33,500 1,984 Climbing Albuquerque Center
Tue 07:18:28 PM 35.2450 -108.1417 280° West 431 496 35,200 1,659 Climbing Albuquerque Center
Tue 07:19:29 PM 35.2669 -108.3006 280° West 425 489 36,900 1,610 Climbing Albuquerque Center
Tue 07:20:31 PM 35.2856 -108.4353 280° West 420 483 38,500 1,317 Climbing Albuquerque Center
Tue 07:21:32 PM 35.3039 -108.5667 280° West 413 475 39,600 732 Climbing Albuquerque Center
Tue 07:22:34 PM 35.3264 -108.7206 280° West 411 473 40,000 195 Climbing Albuquerque Center
Tue 07:23:35 PM 35.3442 -108.8544 279° West 412 474 40,000  Level Albuquerque Center
Tue 07:24:37 PM 35.3642 -109.0125 279° West 417 480 40,000  Level Albuquerque Center
Tue 07:25:39 PM 35.3825 -109.1467 280° West 418 481 40,000  Level Albuquerque Center
Tue 07:26:40 PM 35.4011 -109.2800 280° West 416 479 40,000  Level Albuquerque Center
Tue 07:27:42 PM 35.4217 -109.4356 279° West 412 474 40,000  Level Albuquerque Center
Tue 07:28:43 PM 35.4375 -109.5667 278° West 409 471 40,000  Level Albuquerque Center
Tue 07:29:45 PM 35.4561 -109.7189 279° West 403 464 40,000  Level Albuquerque Center
Tue 07:30:47 PM 35.4714 -109.8478 278° West 400 460 40,000  Level Albuquerque Center
Tue 07:31:48 PM 35.4861 -109.9767 278° West 401 461 40,000  Level Albuquerque Center
Tue 07:32:50 PM 35.5042 -110.1289 278° West 403 464 40,000  Level Albuquerque Center
Tue 07:33:51 PM 35.5214 -110.2617 279° West 408 470 40,000  Level Albuquerque Center
Tue 07:34:53 PM 35.5389 -110.4144 278° West 406 467 40,000  Level Albuquerque Center
Tue 07:35:54 PM 35.5553 -110.5478 279° West 411 473 40,000  Level Albuquerque Center
Tue 07:36:56 PM 35.5719 -110.6825 279° West 415 478 40,000  Level Albuquerque Center
Tue 07:37:57 PM 35.5908 -110.8439 278° West 424 488 40,000 -293 Level Albuquerque Center
Tue 07:38:59 PM 35.6058 -110.9733 278° West 411 473 39,400 -927 Descending Albuquerque Center
Tue 07:40:00 PM 35.6242 -111.1264 278° West 405 466 38,100 -1,415 Descending Albuquerque Center
Tue 07:41:02 PM 35.6408 -111.2589 279° West 409 471 36,500 -1,024 Descending Albuquerque Center
Tue 07:42:03 PM 35.6550 -111.3889 278° West 403 464 36,000 -244 Descending Albuquerque Center
Tue 07:43:05 PM 35.6717 -111.5347 278° West 403 464 36,000  Level Albuquerque Center
Tue 07:44:28 PM 35.6917 -111.7208 278° West 399 459 36,000  Level Los Angeles Center
Tue 07:45:30 PM 35.7064 -111.8578 278° West 403 464 36,000  Level Los Angeles Center
Tue 07:46:32 PM 35.7219 -111.9978 278° West 411 473 36,000  Level Los Angeles Center
Tue 07:47:34 PM 35.7372 -112.1372 278° West 415 478 36,000  Level Los Angeles Center
Tue 07:48:36 PM 35.7550 -112.3028 278° West 413 475 36,000  Level Los Angeles Center
Tue 07:49:38 PM 35.7694 -112.4386 278° West 408 470 36,000  Level Los Angeles Center
Tue 07:50:52 PM 35.7836 -112.5736 277° West 404 465 36,000  Level Los Angeles Center
Tue 07:51:55 PM 35.7994 -112.7336 277° West 400 460 36,000  Level Los Angeles Center
Tue 07:52:57 PM 35.8164 -112.8936 277° West 398 458 36,000  Level Los Angeles Center
Tue 07:53:59 PM 35.8297 -113.0267 277° West 398 458 36,000  Level Los Angeles Center
Tue 07:55:01 PM 35.8422 -113.1617 277° West 400 460 36,000  Level Los Angeles Center
Tue 07:56:03 PM 35.8558 -113.2972 277° West 402 463 36,000  Level Los Angeles Center
Tue 07:57:05 PM 35.8719 -113.4594 277° West 401 461 36,000  Level Los Angeles Center
Tue 07:58:07 PM 35.8847 -113.5933 277° West 399 459 36,000  Level Los Angeles Center
Tue 07:59:09 PM 35.8975 -113.7236 277° West 399 459 36,000  Level Los Angeles Center
Tue 08:00:12 PM 35.9086 -113.8619 276° West 402 463 36,000  Level Los Angeles Center
Tue 08:01:14 PM 35.9242 -114.0267 277° West 400 460 36,000  Level Los Angeles Center
Tue 08:02:16 PM 35.9353 -114.1633 276° West 400 460 36,000  Level Los Angeles Center
Tue 08:03:18 PM 35.9469 -114.2997 276° West 400 460 36,000  Level Los Angeles Center
Tue 08:04:20 PM 35.9594 -114.4361 276° West 399 459 36,000  Level Los Angeles Center
Tue 08:05:22 PM 35.9722 -114.5711 277° West 397 457 36,000  Level Los Angeles Center
Tue 08:06:24 PM 35.9836 -114.7078 276° West 398 458 36,000  Level Los Angeles Center
Tue 08:07:26 PM 36.0011 -114.8733 277° West 402 463 36,000  Level Los Angeles Center
Tue 08:08:28 PM 36.0567 -114.9986 299° West 418 481 36,000  Level Los Angeles Center
Tue 08:09:30 PM 36.1097 -115.1208 298° West 407 468 36,000  Level Los Angeles Center
Tue 08:10:32 PM 36.1631 -115.2433 298° West 405 466 36,000  Level Los Angeles Center
Tue 08:11:34 PM 36.2158 -115.3644 298° West 401 461 36,000  Level Los Angeles Center
Tue 08:12:37 PM 36.2683 -115.4861 298° West 400 460 36,000  Level Los Angeles Center
Tue 08:13:39 PM 36.3267 -115.6378 296° West 404 465 36,000  Level Los Angeles Center
Tue 08:14:41 PM 36.3636 -115.7519 292° West 405 466 36,000  Level Los Angeles Center
Tue 08:15:43 PM 36.4067 -115.8806 293° West 401 461 36,000  Level Los Angeles Center
Tue 08:16:45 PM 36.4575 -116.0336 292° West 398 458 36,000  Level Los Angeles Center
Tue 08:17:47 PM 36.4994 -116.1592 293° West 394 453 36,000  Level Los Angeles Center
Tue 08:18:49 PM 36.5408 -116.2847 292° West 392 451 36,000  Level Los Angeles Center
Tue 08:19:51 PM 36.5817 -116.4117 292° West 394 453 36,000  Level Los Angeles Center
Tue 08:20:53 PM 36.6219 -116.5361 292° West 389 448 36,000  Level Los Angeles Center
Tue 08:22:07 PM 36.6703 -116.6853 292° West 387 445 36,000  Level Los Angeles Center
Tue 08:23:09 PM 36.7114 -116.8117 292° West 391 450 36,000  Level Los Angeles Center
Tue 08:24:11 PM 36.7514 -116.9386 292° West 388 447 36,000  Level Los Angeles Center
Tue 08:25:13 PM 36.7992 -117.0864 292° West 387 445 36,000  Level Los Angeles Center
Tue 08:26:15 PM 36.8392 -117.2136 291° West 390 449 36,000  Level Los Angeles Center
Tue 08:27:17 PM 36.8794 -117.3400 292° West 391 450 36,000  Level Los Angeles Center
Tue 08:27:36 PM 36.8944 -117.3922 290° West 392 451 36,000  Level Oakland Center
Tue 08:28:37 PM 36.9347 -117.5194 292° West 393 452 36,000  Level Oakland Center
Tue 08:29:38 PM 36.9811 -117.6425 295° West 393 452 36,000  Level Oakland Center
Tue 08:30:23 PM 37.0169 -117.7100 304° West 393 452 36,000  Level Los Angeles Center
Tue 08:31:25 PM 37.0900 -117.8481 304° West 395 455 36,000  Level Los Angeles Center
Tue 08:32:42 PM 37.1611 -117.9853 303° West 388 447 36,000  Level Oakland Center
Tue 08:33:43 PM 37.2203 -118.1011 303° West 392 451 36,000  Level Oakland Center
Tue 08:34:44 PM 37.2789 -118.2164 303° West 392 451 36,000  Level Oakland Center
Tue 08:35:46 PM 37.3397 -118.3336 303° West 398 458 36,000  Level Oakland Center
Tue 08:36:47 PM 37.3994 -118.4517 303° West 400 460 36,000  Level Oakland Center
Tue 08:37:48 PM 37.4589 -118.5683 303° West 396 456 36,000  Level Oakland Center
Tue 08:38:49 PM 37.5172 -118.6836 303° West 391 450 36,000  Level Oakland Center
Tue 08:39:50 PM 37.5814 -118.8103 303° West 388 447 36,000  Level Oakland Center
Tue 08:40:52 PM 37.6417 -118.9314 302° West 392 451 36,000  Level Oakland Center
Tue 08:41:53 PM 37.7003 -119.0486 302° West 394 453 36,000  Level Oakland Center
Tue 08:42:54 PM 37.7575 -119.1656 302° West 393 452 36,000  Level Oakland Center
Tue 08:43:55 PM 37.8156 -119.2828 302° West 394 453 36,000  Level Oakland Center
Tue 08:44:56 PM 37.8736 -119.3994 302° West 393 452 36,000  Level Oakland Center
Tue 08:45:58 PM 37.9306 -119.5186 301° West 396 456 36,000 -146 Level Oakland Center
Tue 08:46:59 PM 37.9228 -119.6617 266° West 405 466 35,700 -634 Descending Oakland Center
Tue 08:48:01 PM 37.9164 -119.8036 267° West 402 463 34,700 -1,721 Descending Oakland Center
Tue 08:49:01 PM 37.9058 -119.9700 265° West 395 455 32,200 -2,231 Descending Oakland Center
Tue 08:50:02 PM 37.8994 -120.1028 267° West 381 438 30,200 -1,967 Descending Oakland Center
Tue 08:51:03 PM 37.8919 -120.2311 266° West 369 425 28,200 -1,918 Descending Oakland Center
Tue 08:52:04 PM 37.8842 -120.3564 266° West 358 412 26,300 -1,805 Descending Oakland Center
Tue 08:53:06 PM 37.8769 -120.4756 266° West 343 395 24,500 -1,756 Descending Oakland Center
Tue 08:54:07 PM 37.8706 -120.5931 266° West 336 387 22,700 -1,882 Descending Oakland Center
Tue 08:54:48 PM 37.8667 -120.6833 267° West 341 392 21,300 -1,901 Descending Northern Cal TRACON
Tue 08:55:48 PM 37.8500 -120.8000 260° West 333 383 19,500 -1,900 Descending Northern Cal TRACON
Tue 08:56:48 PM 37.8500 -120.9167 270° West 334 384 17,500 -1,750 Descending Northern Cal TRACON
Tue 08:57:48 PM 37.8500 -121.0333 270° West 323 372 16,000 -1,250 Descending Northern Cal TRACON
Tue 08:58:48 PM 37.8333 -121.1500 260° West 327 376 15,000 -1,000 Descending Northern Cal TRACON
Tue 08:59:48 PM 37.8000 -121.2667 250° West 377 434 14,000 -1,200 Descending Northern Cal TRACON
Tue 09:00:48 PM 37.7667 -121.3667 247° West 319 367 12,600 -1,500 Descending Northern Cal TRACON
Tue 09:01:48 PM 37.7333 -121.4667 247° West 317 365 11,000 -1,400 Descending Northern Cal TRACON
Tue 09:02:48 PM 37.6833 -121.5667 238° Southwest 303 349 9,800 -1,300 Descending Northern Cal TRACON
Tue 09:03:48 PM 37.6500 -121.6667 247° West 294 338 8,400 -1,350 Descending Northern Cal TRACON
Tue 09:04:48 PM 37.6333 -121.7500 256° West 285 328 7,100 -1,100 Descending Northern Cal TRACON
Tue 09:05:48 PM 37.6167 -121.8500 258° West 272 313 6,200 -900 Descending Northern Cal TRACON
Tue 09:06:48 PM 37.6167 -121.9333 270° West 264 304 5,300 -900 Descending Northern Cal TRACON
Tue 09:07:48 PM 37.6000 -122.0167 256° West 228 262 4,400 -1,150 Descending Northern Cal TRACON
Tue 09:08:48 PM 37.6167 -122.0833 288° West 205 236 3,000 -1,188 Descending Northern Cal TRACON
Tue 09:09:24 PM 37.6344 -122.1139 306° West 199 229 2,500 -1,113 Descending Oakland Center
Tue 09:10:25 PM 37.6603 -122.1533 310° West 170 196 1,200 -976 Descending Oakland Center
Tue 09:11:27 PM 37.6825 -122.1869 310° West 145 167 500 -677 Descending Oakland Center
Tue 09:14:00 PM 37.7167 -122.2167 270° West  Level FlightAware Approximate
Tue 09:21:00 PM 37.7213 -122.2207 270° West  Level Estimated

Login

Don't have an account? Register now (free) for customized features, flight alerts, and more!